^^
Datos históricos de la estación: Murcia-Puente Tocinos
Diario Informe para Mayo 20, 2019 Unidades:  Ambas    Ingés   Métrico
Diario Semanal Mensual Anual
  Máxima: Mínima: Promedio:
Temperatura: 77.2 °F /  25.1 °C 57.9 °F /  14.4 °C 67.1 °F /  19.5 °C
Punto de rocio: 59.5 °F /  15.3 °C 39.6 °F /  4.2 °C 49.6 °F /  9.8 °C
Humedad: 83% 29.3% 55%
Velocidad viento: 10.7mph /  17.2km/h - 4.5mph /  7.3km/h
Racha viento: 22mph /  35.4km/h - -
Viento- - ESE
Presión: 29.9 in /  1012.3 hPa 29.8 in /  1009.5 hPa -
Precipitación: 0 in /  0.0 mm    
 
 
Tabla de datos para Mayo 20, 2019
Hora Temperatura Punto de rocio Presión Viento Velocidad viento Racha viento Humedad Intensidad lluvia(por hora) Nubes
00:04 66 °F /  18.9 °C 39.7 °F /  4.3 °C 29.8in /  1010.4hPa NNO 2mph /  3.2km/h 4.6mph /  7.4km/h 38% 0in /  0.0mm
00:09 66 °F /  18.9 °C 39.7 °F /  4.3 °C 29.8in /  1010.4hPa NNO 1.9mph /  3.1km/h 5mph /  8km/h 38% 0in /  0.0mm
00:14 66 °F /  18.9 °C 40.3 °F /  4.6 °C 29.8in /  1010.4hPa ONO 1.8mph /  2.9km/h 4.7mph /  7.6km/h 39% 0in /  0.0mm
00:19 65.8 °F /  18.8 °C 40.8 °F /  4.9 °C 29.8in /  1010.4hPa Oeste 2.2mph /  3.6km/h 5.2mph /  8.4km/h 40% 0in /  0.0mm
00:24 65.7 °F /  18.7 °C 40.5 °F /  4.7 °C 29.8in /  1010.4hPa Oeste 2.9mph /  4.7km/h 5mph /  8km/h 39.7% 0in /  0.0mm
00:29 65.7 °F /  18.7 °C 40.3 °F /  4.6 °C 29.8in /  1010.4hPa Oeste 2.9mph /  4.7km/h 4mph /  6.4km/h 39.5% 0in /  0.0mm
00:34 65.8 °F /  18.8 °C 39.6 °F /  4.2 °C 29.8in /  1010.4hPa Oeste 2mph /  3.2km/h 2.9mph /  4.7km/h 38.1% 0in /  0.0mm
00:39 66.2 °F /  19 °C 39.7 °F /  4.3 °C 29.8in /  1010.3hPa Oeste 1.8mph /  2.9km/h 3.5mph /  5.6km/h 37.9% 0in /  0.0mm
00:44 66.6 °F /  19.2 °C 40.1 °F /  4.5 °C 29.8in /  1010.3hPa Oeste 1.8mph /  2.9km/h 3.5mph /  5.6km/h 38% 0in /  0.0mm
00:49 66.6 °F /  19.2 °C 40.6 °F /  4.8 °C 29.8in /  1010.4hPa Oeste 1.7mph /  2.7km/h 2mph /  3.2km/h 38.8% 0in /  0.0mm
00:54 66.6 °F /  19.2 °C 40.6 °F /  4.8 °C 29.8in /  1010.4hPa ONO 1.4mph /  2.2km/h 4.3mph /  6.9km/h 38.9% 0in /  0.0mm
00:59 66.2 °F /  19 °C 41.4 °F /  5.2 °C 29.8in /  1010.4hPa NO 1.4mph /  2.2km/h 5mph /  8km/h 40.4% 0in /  0.0mm
01:04 65.8 °F /  18.8 °C 41.5 °F /  5.3 °C 29.8in /  1010.5hPa NNO 1.8mph /  2.9km/h 5mph /  8km/h 41.2% 0in /  0.0mm
01:09 65.3 °F /  18.5 °C 41.4 °F /  5.2 °C 29.8in /  1010.5hPa NNO 1.8mph /  2.9km/h 2.9mph /  4.7km/h 41.5% 0in /  0.0mm
01:14 65.1 °F /  18.4 °C 41 °F /  5 °C 29.8in /  1010.5hPa NNO 1.8mph /  2.9km/h 3mph /  4.8km/h 41.5% 0in /  0.0mm
01:19 64.9 °F /  18.3 °C 40.8 °F /  4.9 °C 29.8in /  1010.5hPa NNO 1.1mph /  1.8km/h   41.3% 0in /  0.0mm
01:24 64.9 °F /  18.3 °C 41.2 °F /  5.1 °C 29.8in /  1010.4hPa Calm   5.8mph /  9.3km/h 42% 0in /  0.0mm
01:29 64.8 °F /  18.2 °C 41.2 °F /  5.1 °C 29.8in /  1010.4hPa ENE 0.7mph /  1.1km/h 6mph /  9.7km/h 42% 0in /  0.0mm
01:34 64.6 °F /  18.1 °C 41.4 °F /  5.2 °C 29.8in /  1010.4hPa ENE 1.8mph /  2.9km/h 6mph /  9.7km/h 42.7% 0in /  0.0mm
01:39 64.2 °F /  17.9 °C 41.4 °F /  5.2 °C 29.8in /  1010.4hPa NE 1.9mph /  3km/h 5mph /  8km/h 43.1% 0in /  0.0mm
01:44 64 °F /  17.8 °C 41.7 °F /  5.4 °C 29.8in /  1010.4hPa NE 2mph /  3.2km/h 3.5mph /  5.6km/h 44% 0in /  0.0mm
01:49 63.9 °F /  17.7 °C 41.5 °F /  5.3 °C 29.8in /  1010.5hPa NE 1.7mph /  2.8km/h 3mph /  4.8km/h 44% 0in /  0.0mm
01:54 63.9 °F /  17.7 °C 42.1 °F /  5.6 °C 29.8in /  1010.5hPa NE 1.4mph /  2.2km/h   44.9% 0in /  0.0mm
01:59 63.9 °F /  17.7 °C 42.6 °F /  5.9 °C 29.8in /  1010.5hPa NE 0.8mph /  1.3km/h   45.9% 0in /  0.0mm
02:04 63.9 °F /  17.7 °C 43.2 °F /  6.2 °C 29.8in /  1010.5hPa Calm   3.5mph /  5.6km/h 47.2% 0in /  0.0mm
02:09 63.7 °F /  17.6 °C 43.7 °F /  6.5 °C 29.8in /  1010.5hPa NE 0.5mph /  0.8km/h 3mph /  4.8km/h 48.3% 0in /  0.0mm
02:14 63.7 °F /  17.6 °C 44.2 °F /  6.8 °C 29.8in /  1010.5hPa NE 1.4mph /  2.2km/h 3.6mph /  5.8km/h 49.2% 0in /  0.0mm
02:19 63.7 °F /  17.6 °C 44.6 °F /  7 °C 29.8in /  1010.5hPa NE 1.4mph /  2.2km/h 4mph /  6.4km/h 50% 0in /  0.0mm
02:24 63.3 °F /  17.4 °C 44.4 °F /  6.9 °C 29.8in /  1010.4hPa NE 1.4mph /  2.2km/h 4mph /  6.4km/h 50% 0in /  0.0mm
02:29 63.3 °F /  17.4 °C 45.7 °F /  7.6 °C 29.8in /  1010.4hPa NE 0.9mph /  1.4km/h 2.4mph /  3.9km/h 52.5% 0in /  0.0mm
02:34 63.1 °F /  17.3 °C 47.3 °F /  8.5 °C 29.8in /  1010.4hPa Calm   3.5mph /  5.6km/h 56.1% 0in /  0.0mm
02:39 63.1 °F /  17.3 °C 48.9 °F /  9.4 °C 29.8in /  1010.2hPa NE 0.7mph /  1.1km/h 3.5mph /  5.6km/h 59.6% 0in /  0.0mm
02:44 63.1 °F /  17.3 °C 48.2 °F /  9 °C 29.8in /  1010.2hPa NE 1.8mph /  2.9km/h 3.1mph /  5km/h 58.4% 0in /  0.0mm
02:49 63 °F /  17.2 °C 46.4 °F /  8 °C 29.8in /  1010.2hPa NE 1.7mph /  2.7km/h 3.5mph /  5.6km/h 54.8% 0in /  0.0mm
02:54 62.6 °F /  17 °C 45.5 °F /  7.5 °C 29.8in /  1010.1hPa NE 1.4mph /  2.2km/h 3.1mph /  5km/h 53.7% 0in /  0.0mm
02:59 62.2 °F /  16.8 °C 45.1 °F /  7.3 °C 29.8in /  1010.1hPa NE 1.6mph /  2.6km/h 3.5mph /  5.6km/h 53.2% 0in /  0.0mm
03:04 62.2 °F /  16.8 °C 45 °F /  7.2 °C 29.8in /  1010.1hPa NE 2mph /  3.2km/h 3.5mph /  5.6km/h 53% 0in /  0.0mm
03:09 62.2 °F /  16.8 °C 46 °F /  7.8 °C 29.8in /  1010.0hPa NE 1.9mph /  3.1km/h 3.5mph /  5.6km/h 55.6% 0in /  0.0mm
03:14 62.2 °F /  16.8 °C 46 °F /  7.8 °C 29.8in /  1010.0hPa NE 1.8mph /  2.9km/h 3.5mph /  5.6km/h 55.4% 0in /  0.0mm
03:19 62.1 °F /  16.7 °C 43.9 °F /  6.6 °C 29.8in /  1010.0hPa NE 1.9mph /  3km/h 4.6mph /  7.4km/h 51.3% 0in /  0.0mm
03:24 62.1 °F /  16.7 °C 42.3 °F /  5.7 °C 29.8in /  1009.9hPa NE 2mph /  3.2km/h 5mph /  8km/h 48.3% 0in /  0.0mm
03:29 62.1 °F /  16.7 °C 41.9 °F /  5.5 °C 29.8in /  1009.9hPa NE 1.9mph /  3.1km/h 3.6mph /  5.8km/h 47.7% 0in /  0.0mm
03:34 62.1 °F /  16.7 °C 42.3 °F /  5.7 °C 29.8in /  1010.0hPa NE 1.8mph /  2.9km/h 4mph /  6.4km/h 48.2% 0in /  0.0mm
03:39 61.9 °F /  16.6 °C 43 °F /  6.1 °C 29.8in /  1010.0hPa NE 2.1mph /  3.3km/h 5mph /  8km/h 50% 0in /  0.0mm
03:44 61.9 °F /  16.6 °C 44.8 °F /  7.1 °C 29.8in /  1010.0hPa NE 2.4mph /  3.9km/h 5mph /  8km/h 53.3% 0in /  0.0mm
03:49 61.7 °F /  16.5 °C 42.4 °F /  5.8 °C 29.8in /  1010.0hPa Este 2.2mph /  3.6km/h 4.6mph /  7.4km/h 49.2% 0in /  0.0mm
03:54 61.5 °F /  16.4 °C 40.6 °F /  4.8 °C 29.8in /  1009.8hPa Este 2mph /  3.2km/h 5mph /  8km/h 46.3% 0in /  0.0mm
03:59 61.3 °F /  16.3 °C 39.9 °F /  4.4 °C 29.8in /  1009.8hPa Este 1.9mph /  3.1km/h 3mph /  4.8km/h 45.3% 0in /  0.0mm
04:04 61.3 °F /  16.3 °C 40.3 °F /  4.6 °C 29.8in /  1009.8hPa Este 1.8mph /  2.9km/h 3mph /  4.8km/h 46% 0in /  0.0mm
04:09 61.2 °F /  16.2 °C 40.6 °F /  4.8 °C 29.8in /  1009.8hPa Este 1.1mph /  1.8km/h   46.6% 0in /  0.0mm
04:14 61.3 °F /  16.3 °C 41.9 °F /  5.5 °C 29.8in /  1009.8hPa Calm   2.3mph /  3.7km/h 48.9% 0in /  0.0mm
04:19 61.3 °F /  16.3 °C 42.6 °F /  5.9 °C 29.8in /  1009.8hPa Calm   2.4mph /  3.9km/h 50.3% 0in /  0.0mm
04:24 61.2 °F /  16.2 °C 42.4 °F /  5.8 °C 29.8in /  1009.5hPa Calm   2.3mph /  3.7km/h 50.4% 0in /  0.0mm
04:29 60.8 °F /  16 °C 41.9 °F /  5.5 °C 29.8in /  1009.5hPa Calm   2mph /  3.2km/h 50% 0in /  0.0mm
04:34 60.6 °F /  15.9 °C 41.5 °F /  5.3 °C 29.8in /  1009.5hPa Calm     49.5% 0in /  0.0mm
04:39 60.4 °F /  15.8 °C 42.8 °F /  6 °C 29.8in /  1009.5hPa Calm   2.4mph /  3.9km/h 52.1% 0in /  0.0mm
04:44 60.4 °F /  15.8 °C 43.5 °F /  6.4 °C 29.8in /  1009.5hPa Calm   2.3mph /  3.7km/h 53.5% 0in /  0.0mm
04:49 60.4 °F /  15.8 °C 44.2 °F /  6.8 °C 29.8in /  1009.5hPa Calm   2.3mph /  3.7km/h 54.9% 0in /  0.0mm
04:54 60.6 °F /  15.9 °C 44.6 °F /  7 °C 29.8in /  1009.5hPa Calm   3.6mph /  5.8km/h 55.7% 0in /  0.0mm
04:59 60.6 °F /  15.9 °C 45.9 °F /  7.7 °C 29.8in /  1009.5hPa Oeste 0.7mph /  1.2km/h 4.6mph /  7.4km/h 58% 0in /  0.0mm
05:04 60.6 °F /  15.9 °C 45.3 °F /  7.4 °C 29.8in /  1009.8hPa SO 1.8mph /  2.9km/h 5.8mph /  9.3km/h 56.9% 0in /  0.0mm
05:09 60.6 °F /  15.9 °C 44.6 °F /  7 °C 29.8in /  1009.8hPa OSO 2.2mph /  3.6km/h 6mph /  9.7km/h 55.4% 0in /  0.0mm
05:14 60.6 °F /  15.9 °C 44.4 °F /  6.9 °C 29.8in /  1009.8hPa Oeste 2.9mph /  4.7km/h 5mph /  8km/h 55% 0in /  0.0mm
05:19 60.6 °F /  15.9 °C 44.4 °F /  6.9 °C 29.8in /  1009.8hPa Oeste 2.3mph /  3.7km/h 3mph /  4.8km/h 54.9% 0in /  0.0mm
05:24 60.6 °F /  15.9 °C 44.1 °F /  6.7 °C 29.8in /  1009.7hPa OSO 1.4mph /  2.2km/h 3.6mph /  5.8km/h 54.2% 0in /  0.0mm
05:29 60.4 °F /  15.8 °C 44.1 °F /  6.7 °C 29.8in /  1009.7hPa SSE 1.4mph /  2.2km/h 4.6mph /  7.4km/h 54.5% 0in /  0.0mm
05:34 60.4 °F /  15.8 °C 44.2 °F /  6.8 °C 29.8in /  1009.7hPa SSE 1.4mph /  2.2km/h 5mph /  8km/h 55% 0in /  0.0mm
05:39 60.3 °F /  15.7 °C 44.4 °F /  6.9 °C 29.8in /  1009.7hPa SSE 1.6mph /  2.5km/h 4mph /  6.4km/h 55.5% 0in /  0.0mm
05:44 60.3 °F /  15.7 °C 44.4 °F /  6.9 °C 29.8in /  1009.7hPa SSE 1.8mph /  2.9km/h 8.1mph /  13km/h 55.8% 0in /  0.0mm
05:49 59.4 °F /  15.2 °C 43.3 °F /  6.3 °C 29.8in /  1009.8hPa SSE 2.7mph /  4.3km/h 8.1mph /  13km/h 55.2% 0in /  0.0mm
05:54 58.6 °F /  14.8 °C 43.2 °F /  6.2 °C 29.8in /  1009.8hPa SSO 4mph /  6.5km/h 8.1mph /  13km/h 56.2% 0in /  0.0mm
05:59 58.5 °F /  14.7 °C 43.3 °F /  6.3 °C 29.8in /  1009.8hPa SSO 4.3mph /  6.9km/h 8mph /  12.9km/h 57% 0in /  0.0mm
06:04 58.5 °F /  14.7 °C 43.7 °F /  6.5 °C 29.8in /  1009.8hPa SSO 4.7mph /  7.6km/h 7.4mph /  11.9km/h 57.8% 0in /  0.0mm
06:09 58.6 °F /  14.8 °C 43.3 °F /  6.3 °C 29.8in /  1009.8hPa SSO 4.9mph /  7.9km/h 7mph /  11.3km/h 57% 0in /  0.0mm
06:14 58.6 °F /  14.8 °C 43.3 °F /  6.3 °C 29.8in /  1009.8hPa SSO 5.2mph /  8.4km/h 7mph /  11.3km/h 56.9% 0in /  0.0mm
06:19 58.8 °F /  14.9 °C 43.3 °F /  6.3 °C 29.8in /  1009.9hPa SO 4.8mph /  7.8km/h 7mph /  11.3km/h 56.5% 0in /  0.0mm
06:24 58.8 °F /  14.9 °C 43.2 °F /  6.2 °C 29.8in /  1009.9hPa SO 4.3mph /  6.9km/h 6mph /  9.7km/h 56% 0in /  0.0mm
06:29 59 °F /  15 °C 43.3 °F /  6.3 °C 29.8in /  1009.9hPa Sur 3.9mph /  6.2km/h 5.9mph /  9.5km/h 56% 0in /  0.0mm
06:34 59 °F /  15 °C 42.8 °F /  6 °C 29.8in /  1010.0hPa SSE 3.1mph /  5km/h 6mph /  9.7km/h 55.2% 0in /  0.0mm
06:39 59 °F /  15 °C 42.8 °F /  6 °C 29.8in /  1010.0hPa SSE 3.3mph /  5.3km/h 6.2mph /  10km/h 55.1% 0in /  0.0mm
06:44 59 °F /  15 °C 43.3 °F /  6.3 °C 29.8in /  1010.0hPa SSE 3.6mph /  5.8km/h 6mph /  9.7km/h 56% 0in /  0.0mm
06:49 59 °F /  15 °C 43.3 °F /  6.3 °C 29.8in /  1010.1hPa SSE 3.6mph /  5.8km/h 5.9mph /  9.5km/h 56% 0in /  0.0mm
06:54 59 °F /  15 °C 43.3 °F /  6.3 °C 29.8in /  1010.1hPa SSE 3.6mph /  5.8km/h 6mph /  9.7km/h 56% 0in /  0.0mm
06:59 58.8 °F /  14.9 °C 43.2 °F /  6.2 °C 29.8in /  1010.1hPa SSE 3.1mph /  5km/h 5.2mph /  8.4km/h 56% 0in /  0.0mm
07:04 58.6 °F /  14.8 °C 43 °F /  6.1 °C 29.8in /  1010.2hPa SE 2.4mph /  3.9km/h 5mph /  8km/h 56% 0in /  0.0mm
07:09 58.6 °F /  14.8 °C 43.3 °F /  6.3 °C 29.8in /  1010.2hPa SE 2.2mph /  3.6km/h 5mph /  8km/h 56.8% 0in /  0.0mm
07:14 58.5 °F /  14.7 °C 43.2 °F /  6.2 °C 29.8in /  1010.2hPa SE 2mph /  3.2km/h 3.5mph /  5.6km/h 57% 0in /  0.0mm
07:19 58.3 °F /  14.6 °C 43.5 °F /  6.4 °C 29.8in /  1010.4hPa SE 1.9mph /  3.1km/h 4mph /  6.4km/h 57.9% 0in /  0.0mm
07:24 58.3 °F /  14.6 °C 43 °F /  6.1 °C 29.8in /  1010.4hPa SE 1.8mph /  2.9km/h 5.2mph /  8.4km/h 57.1% 0in /  0.0mm
07:29 57.9 °F /  14.4 °C 43.2 °F /  6.2 °C 29.8in /  1010.4hPa SE 2.2mph /  3.5km/h 5mph /  8km/h 57.8% 0in /  0.0mm
07:34 57.9 °F /  14.4 °C 43.2 °F /  6.2 °C 29.8in /  1010.7hPa SSE 2.9mph /  4.7km/h 5mph /  8km/h 58% 0in /  0.0mm
07:39 58.1 °F /  14.5 °C 43 °F /  6.1 °C 29.8in /  1010.7hPa SSE 3mph /  4.8km/h 5mph /  8km/h 57.4% 0in /  0.0mm
07:44 58.5 °F /  14.7 °C 43.2 °F /  6.2 °C 29.8in /  1010.7hPa SE 3.1mph /  5km/h 5mph /  8km/h 57% 0in /  0.0mm
07:49 58.8 °F /  14.9 °C 43.9 °F /  6.6 °C 29.9in /  1010.9hPa Este 2.6mph /  4.2km/h 5mph /  8km/h 57.7% 0in /  0.0mm
07:54 59.4 °F /  15.2 °C 44.6 °F /  7 °C 29.9in /  1010.9hPa NNE 1.8mph /  2.9km/h 4.6mph /  7.4km/h 58% 0in /  0.0mm
07:59 59.5 °F /  15.3 °C 44.8 °F /  7.1 °C 29.9in /  1010.9hPa North 1.6mph /  2.6km/h 5mph /  8km/h 58% 0in /  0.0mm
08:04 59.7 °F /  15.4 °C 45.3 °F /  7.4 °C 29.9in /  1011.0hPa NNO 1.4mph /  2.2km/h 3.5mph /  5.6km/h 59% 0in /  0.0mm
08:09 60.1 °F /  15.6 °C 45.7 °F /  7.6 °C 29.9in /  1011.0hPa NNO 1.6mph /  2.5km/h 3mph /  4.8km/h 59% 0in /  0.0mm
08:14 60.6 °F /  15.9 °C 46.2 °F /  7.9 °C 29.9in /  1011.0hPa NNO 1.8mph /  2.9km/h 3mph /  4.8km/h 58.9% 0in /  0.0mm
08:19 61.3 °F /  16.3 °C 46 °F /  7.8 °C 29.9in /  1011.2hPa NNO 1.1mph /  1.8km/h 3.6mph /  5.8km/h 57.1% 0in /  0.0mm
08:24 61.5 °F /  16.4 °C 45.3 °F /  7.4 °C 29.9in /  1011.2hPa Calm   4mph /  6.4km/h 55.3% 0in /  0.0mm
08:29 61.9 °F /  16.6 °C 45.5 °F /  7.5 °C 29.9in /  1011.2hPa ESE 0.7mph /  1.1km/h 4mph /  6.4km/h 55.1% 0in /  0.0mm
08:34 62.2 °F /  16.8 °C 45.9 °F /  7.7 °C 29.9in /  1011.2hPa ESE 1.8mph /  2.9km/h 3.6mph /  5.8km/h 55% 0in /  0.0mm
08:39 62.4 °F /  16.9 °C 46 °F /  7.8 °C 29.9in /  1011.1hPa ESE 1.8mph /  2.9km/h 4mph /  6.4km/h 55% 0in /  0.0mm
08:44 62.8 °F /  17.1 °C 45.9 °F /  7.7 °C 29.9in /  1011.1hPa SE 1.8mph /  2.9km/h 4.3mph /  6.9km/h 54% 0in /  0.0mm
08:49 63 °F /  17.2 °C 45.9 °F /  7.7 °C 29.9in /  1011.3hPa Sur 1.9mph /  3km/h 5mph /  8km/h 53.5% 0in /  0.0mm
08:54 62.8 °F /  17.1 °C 45.9 °F /  7.7 °C 29.9in /  1011.3hPa Sur 2mph /  3.2km/h 5mph /  8km/h 53.8% 0in /  0.0mm
08:59 63 °F /  17.2 °C 46 °F /  7.8 °C 29.9in /  1011.3hPa SE 2.2mph /  3.5km/h 5.2mph /  8.4km/h 54% 0in /  0.0mm
09:04 63.1 °F /  17.3 °C 46 °F /  7.8 °C 29.9in /  1011.3hPa SSE 2.4mph /  3.9km/h 5.9mph /  9.5km/h 54% 0in /  0.0mm
09:09 63.1 °F /  17.3 °C 46.2 °F /  7.9 °C 29.9in /  1011.3hPa SSE 2.7mph /  4.3km/h 6mph /  9.7km/h 54% 0in /  0.0mm
09:14 63.5 °F /  17.5 °C 46.6 °F /  8.1 °C 29.9in /  1011.3hPa SSE 3.1mph /  5km/h 5.2mph /  8.4km/h 54% 0in /  0.0mm
09:19 63.9 °F /  17.7 °C 46.9 °F /  8.3 °C 29.9in /  1011.3hPa Sur 3mph /  4.9km/h 6.2mph /  10km/h 54% 0in /  0.0mm
09:24 64 °F /  17.8 °C 47.1 °F /  8.4 °C 29.9in /  1011.3hPa SSE 2.9mph /  4.7km/h 6mph /  9.7km/h 54% 0in /  0.0mm
09:29 64.4 °F /  18 °C 47.5 °F /  8.6 °C 29.9in /  1011.3hPa Sur 2.5mph /  4.1km/h 5.9mph /  9.5km/h 54.1% 0in /  0.0mm
09:34 64.9 °F /  18.3 °C 48 °F /  8.9 °C 29.9in /  1011.5hPa Sur 2mph /  3.2km/h 6.2mph /  10km/h 54% 0in /  0.0mm
09:39 64.9 °F /  18.3 °C 48.2 °F /  9 °C 29.9in /  1011.5hPa SSE 2.4mph /  3.9km/h 6.9mph /  11.1km/h 54.5% 0in /  0.0mm
09:44 65.1 °F /  18.4 °C 48.6 °F /  9.2 °C 29.9in /  1011.5hPa SE 3.1mph /  5km/h 7mph /  11.3km/h 55% 0in /  0.0mm
09:49 65.1 °F /  18.4 °C 48.7 °F /  9.3 °C 29.9in /  1011.6hPa SSE 3.5mph /  5.7km/h 7.4mph /  11.9km/h 55.7% 0in /  0.0mm
09:54 65.1 °F /  18.4 °C 49.1 °F /  9.5 °C 29.9in /  1011.6hPa SE 4.3mph /  6.9km/h 7mph /  11.3km/h 56% 0in /  0.0mm
09:59 65.7 °F /  18.7 °C 49.5 °F /  9.7 °C 29.9in /  1011.6hPa SSE 3.8mph /  6.1km/h 7mph /  11.3km/h 56% 0in /  0.0mm
10:04 66 °F /  18.9 °C 49.5 °F /  9.7 °C 29.9in /  1011.6hPa SSO 3.1mph /  5km/h 5.2mph /  8.4km/h 55.1% 0in /  0.0mm
10:09 66.2 °F /  19 °C 49.6 °F /  9.8 °C 29.9in /  1011.6hPa SO 3.1mph /  5km/h 5.2mph /  8.4km/h 55% 0in /  0.0mm
10:14 66.6 °F /  19.2 °C 49.8 °F /  9.9 °C 29.9in /  1011.6hPa Sur 3.1mph /  5km/h 5mph /  8km/h 55% 0in /  0.0mm
10:19 67.1 °F /  19.5 °C 50 °F /  10 °C 29.9in /  1011.6hPa Este 2.7mph /  4.3km/h 5mph /  8km/h 54.2% 0in /  0.0mm
10:24 68 °F /  20 °C 50.2 °F /  10.1 °C 29.9in /  1011.6hPa NNE 2mph /  3.2km/h 5.8mph /  9.3km/h 52.6% 0in /  0.0mm
10:29 68.7 °F /  20.4 °C 50 °F /  10 °C 29.9in /  1011.6hPa North 2mph /  3.2km/h 6.2mph /  10km/h 51.1% 0in /  0.0mm
10:34 68.9 °F /  20.5 °C 49.6 °F /  9.8 °C 29.9in /  1011.6hPa NNE 2mph /  3.2km/h 6mph /  9.7km/h 50.5% 0in /  0.0mm
10:39 68.7 °F /  20.4 °C 49.8 °F /  9.9 °C 29.9in /  1011.5hPa NE 2.6mph /  4.2km/h 8.1mph /  13km/h 50.8% 0in /  0.0mm
10:44 68.4 °F /  20.2 °C 49.5 °F /  9.7 °C 29.9in /  1011.5hPa NE 3.6mph /  5.8km/h 8mph /  12.9km/h 50.9% 0in /  0.0mm
10:49 68.2 °F /  20.1 °C 49.6 °F /  9.8 °C 29.9in /  1011.5hPa NE 3.6mph /  5.8km/h 6mph /  9.7km/h 51.6% 0in /  0.0mm
10:54 68.5 °F /  20.3 °C 49.8 °F /  9.9 °C 29.9in /  1011.5hPa ENE 3.6mph /  5.8km/h 6mph /  9.7km/h 51.1% 0in /  0.0mm
10:59 69.1 °F /  20.6 °C 50 °F /  10 °C 29.9in /  1011.5hPa ENE 3.3mph /  5.3km/h 6.2mph /  10km/h 50.5% 0in /  0.0mm
11:04 69.6 °F /  20.9 °C 49.8 °F /  9.9 °C 29.9in /  1011.6hPa NE 2.9mph /  4.7km/h 8.1mph /  13km/h 49.4% 0in /  0.0mm
11:09 69.6 °F /  20.9 °C 49.6 °F /  9.8 °C 29.9in /  1011.6hPa NE 3mph /  4.8km/h 8mph /  12.9km/h 49% 0in /  0.0mm
11:14 70 °F /  21.1 °C 49.6 °F /  9.8 °C 29.9in /  1011.6hPa NO 3.1mph /  5km/h 5.9mph /  9.5km/h 48.6% 0in /  0.0mm
11:19 69.8 °F /  21 °C 49.3 °F /  9.6 °C 29.9in /  1011.6hPa NNE 2.9mph /  4.6km/h 6mph /  9.7km/h 48% 0in /  0.0mm
11:24 69.8 °F /  21 °C 49.6 °F /  9.8 °C 29.9in /  1011.5hPa NNE 2.4mph /  3.9km/h 6.2mph /  10km/h 48.8% 0in /  0.0mm
11:29 70 °F /  21.1 °C 49.6 °F /  9.8 °C 29.9in /  1011.5hPa NE 3mph /  4.8km/h 9.7mph /  15.6km/h 48.5% 0in /  0.0mm
11:34 69.8 °F /  21 °C 49.6 °F /  9.8 °C 29.9in /  1011.5hPa NNE 4mph /  6.5km/h 10.4mph /  16.7km/h 48.8% 0in /  0.0mm
11:39 70.2 °F /  21.2 °C 49.5 °F /  9.7 °C 29.9in /  1011.4hPa NNE 4mph /  6.5km/h 10mph /  16.1km/h 47.8% 0in /  0.0mm
11:44 70.7 °F /  21.5 °C 49.5 °F /  9.7 °C 29.9in /  1011.4hPa NE 4mph /  6.5km/h 7.4mph /  11.9km/h 47.2% 0in /  0.0mm
11:49 71.1 °F /  21.7 °C 49.8 °F /  9.9 °C 29.9in /  1011.4hPa NE 4.1mph /  6.6km/h 9.2mph /  14.8km/h 47% 0in /  0.0mm
11:54 71.2 °F /  21.8 °C 49.5 °F /  9.7 °C 29.9in /  1011.4hPa NE 4.3mph /  6.9km/h 10.4mph /  16.7km/h 46.1% 0in /  0.0mm
11:59 71.6 °F /  22 °C 49.1 °F /  9.5 °C 29.9in /  1011.4hPa NE 4.5mph /  7.2km/h 10mph /  16.1km/h 44.9% 0in /  0.0mm
12:04 71.6 °F /  22 °C 48.2 °F /  9 °C 29.9in /  1011.4hPa NE 4.7mph /  7.6km/h 10mph /  16.1km/h 43.5% 0in /  0.0mm
12:09 72 °F /  22.2 °C 47.7 °F /  8.7 °C 29.9in /  1011.3hPa NNE 4.4mph /  7.1km/h 8.5mph /  13.7km/h 42.1% 0in /  0.0mm
12:14 72.3 °F /  22.4 °C 46.4 °F /  8 °C 29.9in /  1011.3hPa North 4mph /  6.5km/h 9mph /  14.5km/h 39.6% 0in /  0.0mm
12:19 72.3 °F /  22.4 °C 45.9 °F /  7.7 °C 29.9in /  1011.4hPa ENE 4.1mph /  6.6km/h 9.7mph /  15.6km/h 38.7% 0in /  0.0mm
12:24 72.9 °F /  22.7 °C 45.9 °F /  7.7 °C 29.9in /  1011.4hPa ENE 4.3mph /  6.9km/h 10mph /  16.1km/h 38.3% 0in /  0.0mm
12:29 73 °F /  22.8 °C 46.4 °F /  8 °C 29.9in /  1011.4hPa North 4.3mph /  6.9km/h 8.5mph /  13.7km/h 38.5% 0in /  0.0mm
12:34 73.4 °F /  23 °C 46.8 °F /  8.2 °C 29.9in /  1011.4hPa NE 4.3mph /  6.9km/h 11.2mph /  18km/h 38.8% 0in /  0.0mm
12:39 73.4 °F /  23 °C 46.9 °F /  8.3 °C 29.9in /  1011.3hPa NE 4.3mph /  6.9km/h 12mph /  19.3km/h 38.9% 0in /  0.0mm
12:44 73.2 °F /  22.9 °C 46.4 °F /  8 °C 29.9in /  1011.3hPa Este 4.3mph /  6.9km/h 9.7mph /  15.6km/h 38.3% 0in /  0.0mm
12:49 73.4 °F /  23 °C 46.8 °F /  8.2 °C 29.9in /  1011.3hPa NNE 4.5mph /  7.2km/h 10mph /  16.1km/h 38.9% 0in /  0.0mm
12:54 73.6 °F /  23.1 °C 45.5 °F /  7.5 °C 29.9in /  1011.1hPa NNO 4.7mph /  7.6km/h 9mph /  14.5km/h 36.7% 0in /  0.0mm
12:59 73.8 °F /  23.2 °C 45 °F /  7.2 °C 29.9in /  1011.1hPa North 4.7mph /  7.6km/h 8mph /  12.9km/h 35.8% 0in /  0.0mm
13:04 73.9 °F /  23.3 °C 45 °F /  7.2 °C 29.9in /  1011.1hPa NE 4.7mph /  7.6km/h 10.4mph /  16.7km/h 35.5% 0in /  0.0mm
13:09 73.9 °F /  23.3 °C 43.5 °F /  6.4 °C 29.9in /  1011.1hPa NE 5.3mph /  8.5km/h 10mph /  16.1km/h 33.8% 0in /  0.0mm
13:14 73.9 °F /  23.3 °C 43.7 °F /  6.5 °C 29.9in /  1011.1hPa NNE 6.2mph /  10km/h 10mph /  16.1km/h 34.1% 0in /  0.0mm
13:19 74.3 °F /  23.5 °C 43.7 °F /  6.5 °C 29.9in /  1011.1hPa North 5.3mph /  8.6km/h 7mph /  11.3km/h 33.5% 0in /  0.0mm
13:24 74.8 °F /  23.8 °C 42.6 °F /  5.9 °C 29.9in /  1010.9hPa NNE 4mph /  6.5km/h 6mph /  9.7km/h 31.4% 0in /  0.0mm
13:29 75.4 °F /  24.1 °C 43 °F /  6.1 °C 29.9in /  1010.9hPa NNE 3.6mph /  5.8km/h 6mph /  9.7km/h 31.3% 0in /  0.0mm
13:34 76.1 °F /  24.5 °C 44.1 °F /  6.7 °C 29.9in /  1010.9hPa ENE 2.9mph /  4.7km/h 9.7mph /  15.6km/h 32.1% 0in /  0.0mm
13:39 76.3 °F /  24.6 °C 43.9 °F /  6.6 °C 29.9in /  1010.8hPa ENE 3.2mph /  5.1km/h 10mph /  16.1km/h 31.6% 0in /  0.0mm
13:44 76.1 °F /  24.5 °C 44.1 °F /  6.7 °C 29.9in /  1010.8hPa NNE 3.6mph /  5.8km/h 9.2mph /  14.8km/h 32.1% 0in /  0.0mm
13:49 76.3 °F /  24.6 °C 44.1 °F /  6.7 °C 29.9in /  1010.8hPa NE 3.7mph /  6km/h 9.2mph /  14.8km/h 31.8% 0in /  0.0mm
13:54 76.5 °F /  24.7 °C 42.4 °F /  5.8 °C 29.8in /  1010.5hPa NNO 4mph /  6.5km/h 10mph /  16.1km/h 29.7% 0in /  0.0mm
13:59 76.8 °F /  24.9 °C 43 °F /  6.1 °C 29.8in /  1010.5hPa North 4.8mph /  7.7km/h 15mph /  24.1km/h 30% 0in /  0.0mm
14:04 77 °F /  25 °C 42.6 °F /  5.9 °C 29.8in /  1010.5hPa NNE 5.9mph /  9.5km/h 15mph /  24.1km/h 29.3% 0in /  0.0mm
14:09 77.2 °F /  25.1 °C 46.9 °F /  8.3 °C 29.8in /  1010.4hPa NO 5.9mph /  9.5km/h 15.2mph /  24.5km/h 34.8% 0in /  0.0mm
14:14 76.6 °F /  24.8 °C 51.4 °F /  10.8 °C 29.8in /  1010.4hPa NE 5.9mph /  9.5km/h 15mph /  24.1km/h 41.4% 0in /  0.0mm
14:19 75.9 °F /  24.4 °C 50.5 °F /  10.3 °C 29.8in /  1010.5hPa NE 6.3mph /  10.1km/h 15mph /  24.1km/h 41.1% 0in /  0.0mm
14:24 75.6 °F /  24.2 °C 50.5 °F /  10.3 °C 29.8in /  1010.5hPa NE 6.9mph /  11.1km/h 15mph /  24.1km/h 41.3% 0in /  0.0mm
14:29 75.6 °F /  24.2 °C 51.6 °F /  10.9 °C 29.8in /  1010.5hPa NE 7.6mph /  12.2km/h 16.1mph /  25.9km/h 43.3% 0in /  0.0mm
14:34 75.6 °F /  24.2 °C 52.7 °F /  11.5 °C 29.8in /  1010.5hPa NE 8.7mph /  14km/h 19.2mph /  30.9km/h 45% 0in /  0.0mm
14:39 75.7 °F /  24.3 °C 54.1 °F /  12.3 °C 29.8in /  1010.4hPa ENE 8.7mph /  14km/h 20mph /  32.2km/h 47.1% 0in /  0.0mm
14:44 75.2 °F /  24 °C 54.1 °F /  12.3 °C 29.8in /  1010.4hPa Este 8.7mph /  14km/h 20mph /  32.2km/h 48.1% 0in /  0.0mm
14:49 74.7 °F /  23.7 °C 54.3 °F /  12.4 °C 29.8in /  1010.4hPa ESE 9.1mph /  14.6km/h 18.4mph /  29.6km/h 49.4% 0in /  0.0mm
14:54 74.1 °F /  23.4 °C 53.4 °F /  11.9 °C 29.8in /  1010.4hPa ESE 9.7mph /  15.6km/h 21.9mph /  35.2km/h 48.6% 0in /  0.0mm
14:59 73.9 °F /  23.3 °C 52.7 °F /  11.5 °C 29.8in /  1010.4hPa ESE 10.1mph /  16.3km/h 22mph /  35.4km/h 47.6% 0in /  0.0mm
15:04 74.5 °F /  23.6 °C 52.7 °F /  11.5 °C 29.8in /  1010.4hPa ENE 10.7mph /  17.2km/h 15mph /  24.1km/h 46.8% 0in /  0.0mm
15:09 74.8 °F /  23.8 °C 52.9 °F /  11.6 °C 29.8in /  1010.3hPa NE 9.5mph /  15.3km/h 17.8mph /  28.6km/h 46.1% 0in /  0.0mm
15:14 74.8 °F /  23.8 °C 52.2 °F /  11.2 °C 29.8in /  1010.3hPa NE 7.6mph /  12.2km/h 18.4mph /  29.6km/h 45.1% 0in /  0.0mm
15:19 74.8 °F /  23.8 °C 52 °F /  11.1 °C 29.8in /  1010.3hPa ENE 8.8mph /  14.2km/h 18mph /  29km/h 44.7% 0in /  0.0mm
15:24 75.4 °F /  24.1 °C 53.2 °F /  11.8 °C 29.8in /  1010.3hPa Este 10.7mph /  17.2km/h 16mph /  25.7km/h 46% 0in /  0.0mm
15:29 75.2 °F /  24 °C 52.9 °F /  11.6 °C 29.8in /  1010.3hPa ESE 9.9mph /  15.9km/h 19.6mph /  31.5km/h 45.9% 0in /  0.0mm
15:34 75 °F /  23.9 °C 52.9 °F /  11.6 °C 29.8in /  1010.3hPa ESE 8.5mph /  13.7km/h 20mph /  32.2km/h 46% 0in /  0.0mm
15:39 74.7 °F /  23.7 °C 52.7 °F /  11.5 °C 29.8in /  1010.2hPa ESE 9.1mph /  14.7km/h 16.1mph /  25.9km/h 46.1% 0in /  0.0mm
15:44 74.8 °F /  23.8 °C 52.5 °F /  11.4 °C 29.8in /  1010.2hPa ESE 10.2mph /  16.4km/h 16mph /  25.7km/h 45.8% 0in /  0.0mm
15:49 74.7 °F /  23.7 °C 52.5 °F /  11.4 °C 29.8in /  1010.2hPa ESE 10mph /  16.1km/h 15mph /  24.1km/h 46% 0in /  0.0mm
15:54 74.5 °F /  23.6 °C 51.8 °F /  11 °C 29.8in /  1010.2hPa ESE 9.7mph /  15.6km/h 15mph /  24.1km/h 45.1% 0in /  0.0mm
15:59 74.8 °F /  23.8 °C 52.2 °F /  11.2 °C 29.8in /  1010.2hPa ESE 8.8mph /  14.2km/h 14mph /  22.5km/h 45% 0in /  0.0mm
16:04 75.4 °F /  24.1 °C 51.8 °F /  11 °C 29.8in /  1010.2hPa ESE 7.6mph /  12.2km/h 15.2mph /  24.5km/h 43.9% 0in /  0.0mm
16:09 74.8 °F /  23.8 °C 51.8 °F /  11 °C 29.8in /  1010.0hPa ESE 8mph /  12.9km/h 15mph /  24.1km/h 44.3% 0in /  0.0mm
16:14 75 °F /  23.9 °C 52.2 °F /  11.2 °C 29.8in /  1010.0hPa ESE 8.7mph /  14km/h 13mph /  20.9km/h 44.9% 0in /  0.0mm
16:19 74.8 °F /  23.8 °C 51.6 °F /  10.9 °C 29.8in /  1010.0hPa ESE 8.3mph /  13.3km/h 13.5mph /  21.7km/h 44.2% 0in /  0.0mm
16:24 74.8 °F /  23.8 °C 52 °F /  11.1 °C 29.8in /  1010.0hPa ESE 7.6mph /  12.2km/h 15mph /  24.1km/h 44.9% 0in /  0.0mm
16:29 74.7 °F /  23.7 °C 51.8 °F /  11 °C 29.8in /  1010.0hPa ESE 7.6mph /  12.2km/h 15mph /  24.1km/h 45% 0in /  0.0mm
16:34 74.7 °F /  23.7 °C 51.8 °F /  11 °C 29.8in /  1010.0hPa ESE 7.6mph /  12.2km/h 15mph /  24.1km/h 44.9% 0in /  0.0mm
16:39 74.7 °F /  23.7 °C 52 °F /  11.1 °C 29.8in /  1010.0hPa ESE 8mph /  12.8km/h 15mph /  24.1km/h 45.2% 0in /  0.0mm
16:44 74.3 °F /  23.5 °C 53.2 °F /  11.8 °C 29.8in /  1010.0hPa ESE 8.5mph /  13.7km/h 15mph /  24.1km/h 48% 0in /  0.0mm
16:49 73.9 °F /  23.3 °C 53.4 °F /  11.9 °C 29.8in /  1010.1hPa Este 8.3mph /  13.4km/h 15mph /  24.1km/h 48.7% 0in /  0.0mm
16:54 73.9 °F /  23.3 °C 54 °F /  12.2 °C 29.8in /  1010.1hPa ESE 8.1mph /  13km/h 11.5mph /  18.5km/h 49.9% 0in /  0.0mm
16:59 73.9 °F /  23.3 °C 54.1 °F /  12.3 °C 29.8in /  1010.1hPa ESE 7.3mph /  11.8km/h 12mph /  19.3km/h 49.8% 0in /  0.0mm
17:04 73.9 °F /  23.3 °C 54 °F /  12.2 °C 29.8in /  1010.1hPa ESE 6.2mph /  10km/h 12.7mph /  20.4km/h 49.6% 0in /  0.0mm
17:09 73.8 °F /  23.2 °C 54.3 °F /  12.4 °C 29.8in /  1010.1hPa ESE 6.3mph /  10.1km/h 13mph /  20.9km/h 50.7% 0in /  0.0mm
17:14 73.8 °F /  23.2 °C 54.5 °F /  12.5 °C 29.8in /  1010.1hPa ESE 6.4mph /  10.3km/h 10mph /  16.1km/h 51.1% 0in /  0.0mm
17:19 73.8 °F /  23.2 °C 54.5 °F /  12.5 °C 29.8in /  1010.1hPa Este 6mph /  9.7km/h 10.4mph /  16.7km/h 50.9% 0in /  0.0mm
17:24 73.6 °F /  23.1 °C 53.8 °F /  12.1 °C 29.8in /  1010.1hPa Este 5.4mph /  8.7km/h 9mph /  14.5km/h 50.1% 0in /  0.0mm
17:29 73.4 °F /  23 °C 54 °F /  12.2 °C 29.8in /  1010.1hPa ENE 5.3mph /  8.6km/h 9.2mph /  14.8km/h 50.8% 0in /  0.0mm
17:34 73.2 °F /  22.9 °C 54.7 °F /  12.6 °C 29.8in /  1010.1hPa Este 5.2mph /  8.4km/h 9.2mph /  14.8km/h 52.3% 0in /  0.0mm
17:39 73 °F /  22.8 °C 55 °F /  12.8 °C 29.8in /  1010.0hPa Este 5.2mph /  8.4km/h 9mph /  14.5km/h 53.5% 0in /  0.0mm
17:44 72.9 °F /  22.7 °C 55.8 °F /  13.2 °C 29.8in /  1010.0hPa ENE 5.2mph /  8.4km/h 12.7mph /  20.4km/h 55.2% 0in /  0.0mm
17:49 72.3 °F /  22.4 °C 55.9 °F /  13.3 °C 29.8in /  1010.0hPa NE 5.7mph /  9.1km/h 13mph /  20.9km/h 56.5% 0in /  0.0mm
17:54 72 °F /  22.2 °C 56.1 °F /  13.4 °C 29.8in /  1010.0hPa NE 6.4mph /  10.3km/h 13mph /  20.9km/h 57.4% 0in /  0.0mm
17:59 71.6 °F /  22 °C 56.3 °F /  13.5 °C 29.8in /  1010.0hPa NE 6.8mph /  11km/h 13.5mph /  21.7km/h 58.8% 0in /  0.0mm
18:04 71.2 °F /  21.8 °C 56.5 °F /  13.6 °C 29.8in /  1010.1hPa NE 7.4mph /  11.9km/h 15.2mph /  24.5km/h 59.6% 0in /  0.0mm
18:09 71.1 °F /  21.7 °C 56.5 °F /  13.6 °C 29.8in /  1010.1hPa NE 7.8mph /  12.6km/h 15mph /  24.1km/h 60% 0in /  0.0mm
18:14 71.1 °F /  21.7 °C 56.8 °F /  13.8 °C 29.8in /  1010.1hPa NE 8.5mph /  13.7km/h 15mph /  24.1km/h 60.8% 0in /  0.0mm
18:19 70.9 °F /  21.6 °C 57.2 °F /  14 °C 29.8in /  1010.2hPa NE 8.1mph /  13km/h 15mph /  24.1km/h 61.9% 0in /  0.0mm
18:24 70.7 °F /  21.5 °C 57.4 °F /  14.1 °C 29.8in /  1010.2hPa NE 7.4mph /  11.9km/h 16.1mph /  25.9km/h 62.7% 0in /  0.0mm
18:29 70.2 °F /  21.2 °C 57.4 °F /  14.1 °C 29.8in /  1010.2hPa NE 8.4mph /  13.5km/h 18.5mph /  29.8km/h 63.9% 0in /  0.0mm
18:34 70.2 °F /  21.2 °C 57.4 °F /  14.1 °C 29.8in /  1010.2hPa NE 10mph /  16.1km/h 19mph /  30.6km/h 64% 0in /  0.0mm
18:39 70 °F /  21.1 °C 57.6 °F /  14.2 °C 29.8in /  1010.1hPa NE 9.7mph /  15.6km/h 14mph /  22.5km/h 64.6% 0in /  0.0mm
18:44 69.8 °F /  21 °C 57.6 °F /  14.2 °C 29.8in /  1010.1hPa NE 9.2mph /  14.8km/h 14mph /  22.5km/h 65% 0in /  0.0mm
18:49 69.6 °F /  20.9 °C 57.2 °F /  14 °C 29.8in /  1010.2hPa NE 9mph /  14.5km/h 14mph /  22.5km/h 64.5% 0in /  0.0mm
18:54 69.6 °F /  20.9 °C 57.4 °F /  14.1 °C 29.8in /  1010.2hPa NE 8.7mph /  14km/h 14mph /  22.5km/h 65% 0in /  0.0mm
18:59 69.4 °F /  20.8 °C 57.2 °F /  14 °C 29.8in /  1010.2hPa NE 8.4mph /  13.6km/h 15.2mph /  24.5km/h 65% 0in /  0.0mm
19:04 69.4 °F /  20.8 °C 57.2 °F /  14 °C 29.8in /  1010.2hPa NE 8.1mph /  13km/h 15mph /  24.1km/h 65.3% 0in /  0.0mm
19:09 69.3 °F /  20.7 °C 57.4 °F /  14.1 °C 29.8in /  1010.2hPa NE 7.9mph /  12.7km/h 13mph /  20.9km/h 66% 0in /  0.0mm
19:14 69.3 °F /  20.7 °C 57.4 °F /  14.1 °C 29.8in /  1010.2hPa NE 7.6mph /  12.2km/h 13.8mph /  22.2km/h 66% 0in /  0.0mm
19:19 69.3 °F /  20.7 °C 57.7 °F /  14.3 °C 29.8in /  1010.2hPa NE 8mph /  12.8km/h 16.1mph /  25.9km/h 66.9% 0in /  0.0mm
19:24 69.1 °F /  20.6 °C 57.9 °F /  14.4 °C 29.8in /  1010.0hPa NE 8.5mph /  13.7km/h 17.5mph /  28.2km/h 67.7% 0in /  0.0mm
19:29 68.9 °F /  20.5 °C 57.7 °F /  14.3 °C 29.8in /  1010.0hPa NE 9.1mph /  14.6km/h 17.5mph /  28.2km/h 68% 0in /  0.0mm
19:34 68.7 °F /  20.4 °C 57.9 °F /  14.4 °C 29.8in /  1010.1hPa NE 10mph /  16.1km/h 18.4mph /  29.6km/h 68.7% 0in /  0.0mm
19:39 68.7 °F /  20.4 °C 58.1 °F /  14.5 °C 29.8in /  1010.1hPa NE 9.4mph /  15.2km/h 18mph /  29km/h 69% 0in /  0.0mm
19:44 68.5 °F /  20.3 °C 58.3 °F /  14.6 °C 29.8in /  1010.1hPa NE 8.5mph /  13.7km/h 15mph /  24.1km/h 69.5% 0in /  0.0mm
19:49 68.5 °F /  20.3 °C 58.5 °F /  14.7 °C 29.8in /  1010.1hPa NE 8.5mph /  13.7km/h 14mph /  22.5km/h 70% 0in /  0.0mm
19:54 68.5 °F /  20.3 °C 58.3 °F /  14.6 °C 29.8in /  1010.1hPa NE 8.5mph /  13.7km/h 13mph /  20.9km/h 70% 0in /  0.0mm
19:59 68.4 °F /  20.2 °C 58.6 °F /  14.8 °C 29.8in /  1010.1hPa NE 7.8mph /  12.6km/h 12.7mph /  20.4km/h 71% 0in /  0.0mm
20:04 68.4 °F /  20.2 °C 58.5 °F /  14.7 °C 29.8in /  1010.2hPa NE 6.9mph /  11.1km/h 13mph /  20.9km/h 71% 0in /  0.0mm
20:09 68.2 °F /  20.1 °C 58.5 °F /  14.7 °C 29.8in /  1010.2hPa NE 7.1mph /  11.4km/h 12mph /  19.3km/h 71.3% 0in /  0.0mm
20:14 68.2 °F /  20.1 °C 58.8 °F /  14.9 °C 29.8in /  1010.2hPa NE 7.4mph /  11.9km/h 13mph /  20.9km/h 72% 0in /  0.0mm
20:19 68.2 °F /  20.1 °C 58.8 °F /  14.9 °C 29.8in /  1010.4hPa NE 7mph /  11.3km/h 13mph /  20.9km/h 72% 0in /  0.0mm
20:24 68.2 °F /  20.1 °C 58.6 °F /  14.8 °C 29.8in /  1010.4hPa NE 6.4mph /  10.3km/h 11.5mph /  18.5km/h 72% 0in /  0.0mm
20:29 67.8 °F /  19.9 °C 58.6 °F /  14.8 °C 29.8in /  1010.4hPa NE 6.4mph /  10.3km/h 12mph /  19.3km/h 72.4% 0in /  0.0mm
20:34 67.8 °F /  19.9 °C 58.8 °F /  14.9 °C 29.8in /  1010.5hPa NE 6.4mph /  10.3km/h 12.7mph /  20.4km/h 73% 0in /  0.0mm
20:39 67.8 °F /  19.9 °C 58.8 °F /  14.9 °C 29.8in /  1010.5hPa NE 6.6mph /  10.6km/h 13mph /  20.9km/h 73% 0in /  0.0mm
20:44 67.6 °F /  19.8 °C 59 °F /  15 °C 29.8in /  1010.5hPa NE 6.9mph /  11.1km/h 15mph /  24.1km/h 73.7% 0in /  0.0mm
20:49 67.5 °F /  19.7 °C 59 °F /  15 °C 29.8in /  1010.7hPa NE 7.2mph /  11.6km/h 15mph /  24.1km/h 74.1% 0in /  0.0mm
20:54 67.5 °F /  19.7 °C 59.4 °F /  15.2 °C 29.8in /  1010.7hPa NE 7.6mph /  12.2km/h 13mph /  20.9km/h 75% 0in /  0.0mm
20:59 67.5 °F /  19.7 °C 59.2 °F /  15.1 °C 29.8in /  1010.7hPa NE 7.5mph /  12.1km/h 13.8mph /  22.2km/h 75% 0in /  0.0mm
21:04 67.3 °F /  19.6 °C 59.2 °F /  15.1 °C 29.9in /  1010.9hPa NE 7.4mph /  11.9km/h 14mph /  22.5km/h 75% 0in /  0.0mm
21:09 67.1 °F /  19.5 °C 59.2 °F /  15.1 °C 29.9in /  1010.9hPa NE 7.6mph /  12.3km/h 14mph /  22.5km/h 75.6% 0in /  0.0mm
21:14 66.9 °F /  19.4 °C 59.2 °F /  15.1 °C 29.9in /  1010.9hPa NE 8.1mph /  13km/h 12mph /  19.3km/h 76% 0in /  0.0mm
21:19 66.9 °F /  19.4 °C 59.2 °F /  15.1 °C 29.9in /  1010.9hPa NE 8.1mph /  13km/h 14mph /  22.5km/h 76% 0in /  0.0mm
21:24 66.7 °F /  19.3 °C 59 °F /  15 °C 29.9in /  1010.9hPa NE 8.1mph /  13km/h 14mph /  22.5km/h 76% 0in /  0.0mm
21:29 66.7 °F /  19.3 °C 58.8 °F /  14.9 °C 29.9in /  1010.9hPa NE 7.6mph /  12.3km/h 13mph /  20.9km/h 76% 0in /  0.0mm
21:34 66.6 °F /  19.2 °C 58.8 °F /  14.9 °C 29.9in /  1010.9hPa ENE 6.9mph /  11.1km/h 12mph /  19.3km/h 76% 0in /  0.0mm
21:39 66.6 °F /  19.2 °C 58.8 °F /  14.9 °C 29.9in /  1010.9hPa NE 6.7mph /  10.8km/h 11mph /  17.7km/h 76% 0in /  0.0mm
21:44 66.6 °F /  19.2 °C 58.8 °F /  14.9 °C 29.9in /  1010.9hPa NE 6.4mph /  10.3km/h 10mph /  16.1km/h 76% 0in /  0.0mm
21:49 66.4 °F /  19.1 °C 58.8 °F /  14.9 °C 29.9in /  1011.0hPa NE 6mph /  9.7km/h 9.2mph /  14.8km/h 76.5% 0in /  0.0mm
21:54 66.2 °F /  19 °C 58.8 °F /  14.9 °C 29.9in /  1011.0hPa NE 5.4mph /  8.7km/h 9.7mph /  15.6km/h 77% 0in /  0.0mm
21:59 66 °F /  18.9 °C 59 °F /  15 °C 29.9in /  1011.0hPa NE 5.7mph /  9.2km/h 10mph /  16.1km/h 77.8% 0in /  0.0mm
22:04 65.8 °F /  18.8 °C 58.8 °F /  14.9 °C 29.9in /  1011.3hPa NE 6.2mph /  10km/h 10mph /  16.1km/h 78% 0in /  0.0mm
22:09 65.8 °F /  18.8 °C 59 °F /  15 °C 29.9in /  1011.3hPa NE 5.9mph /  9.5km/h 9mph /  14.5km/h 78.6% 0in /  0.0mm
22:14 65.7 °F /  18.7 °C 59 °F /  15 °C 29.9in /  1011.3hPa NE 5.4mph /  8.7km/h 9.2mph /  14.8km/h 79% 0in /  0.0mm
22:19 65.7 °F /  18.7 °C 59 °F /  15 °C 29.9in /  1011.4hPa NE 5.6mph /  9km/h 9.7mph /  15.6km/h 79% 0in /  0.0mm
22:24 65.5 °F /  18.6 °C 58.8 °F /  14.9 °C 29.9in /  1011.4hPa NE 5.9mph /  9.5km/h 10mph /  16.1km/h 79% 0in /  0.0mm
22:29 65.5 °F /  18.6 °C 59 °F /  15 °C 29.9in /  1011.4hPa NE 5.5mph /  8.8km/h 7mph /  11.3km/h 79.9% 0in /  0.0mm
22:34 65.5 °F /  18.6 °C 59.2 °F /  15.1 °C 29.9in /  1011.8hPa NE 4.7mph /  7.6km/h 8.1mph /  13km/h 80% 0in /  0.0mm
22:39 65.5 °F /  18.6 °C 59 °F /  15 °C 29.9in /  1011.8hPa NE 4.5mph /  7.3km/h 8mph /  12.9km/h 80% 0in /  0.0mm
22:44 65.3 °F /  18.5 °C 59 °F /  15 °C 29.9in /  1011.8hPa NE 4.3mph /  6.9km/h 8.5mph /  13.7km/h 80% 0in /  0.0mm
22:49 65.1 °F /  18.4 °C 59 °F /  15 °C 29.9in /  1011.9hPa NNE 4.7mph /  7.6km/h 10.2mph /  16.4km/h 80.3% 0in /  0.0mm
22:54 64.9 °F /  18.3 °C 59 °F /  15 °C 29.9in /  1011.9hPa NE 5.4mph /  8.7km/h 10.4mph /  16.7km/h 81% 0in /  0.0mm
22:59 64.9 °F /  18.3 °C 59 °F /  15 °C 29.9in /  1011.9hPa NE 5.4mph /  8.7km/h 9.2mph /  14.8km/h 81% 0in /  0.0mm
23:04 64.9 °F /  18.3 °C 59.2 °F /  15.1 °C 29.9in /  1012.1hPa NE 5.4mph /  8.7km/h 9.7mph /  15.6km/h 81.8% 0in /  0.0mm
23:09 64.9 °F /  18.3 °C 59.4 °F /  15.2 °C 29.9in /  1012.1hPa NE 5.6mph /  9km/h 10.7mph /  17.2km/h 82% 0in /  0.0mm
23:14 64.8 °F /  18.2 °C 59.2 °F /  15.1 °C 29.9in /  1012.1hPa NE 5.9mph /  9.5km/h 11mph /  17.7km/h 82% 0in /  0.0mm
23:19 64.8 °F /  18.2 °C 59.2 °F /  15.1 °C 29.9in /  1012.2hPa NE 6mph /  9.7km/h 10mph /  16.1km/h 82% 0in /  0.0mm
23:24 64.8 °F /  18.2 °C 59.2 °F /  15.1 °C 29.9in /  1012.2hPa NE 6.2mph /  10km/h 13mph /  20.9km/h 82.4% 0in /  0.0mm
23:29 64.8 °F /  18.2 °C 59.5 °F /  15.3 °C 29.9in /  1012.2hPa NE 6.5mph /  10.4km/h 13mph /  20.9km/h 83% 0in /  0.0mm
23:34 64.8 °F /  18.2 °C 59.4 °F /  15.2 °C 29.9in /  1012.2hPa NE 6.9mph /  11.1km/h 10mph /  16.1km/h 83% 0in /  0.0mm
23:39 64.6 °F /  18.1 °C 59.4 °F /  15.2 °C 29.9in /  1012.2hPa NE 6.5mph /  10.5km/h 9mph /  14.5km/h 83% 0in /  0.0mm
23:44 64.6 °F /  18.1 °C 59.4 °F /  15.2 °C 29.9in /  1012.2hPa NE 5.9mph /  9.5km/h 10.4mph /  16.7km/h 83% 0in /  0.0mm
23:49 64.8 °F /  18.2 °C 59.4 °F /  15.2 °C 29.9in /  1012.3hPa NE 5.7mph /  9.2km/h 10mph /  16.1km/h 83% 0in /  0.0mm
23:54 64.8 °F /  18.2 °C 59.2 °F /  15.1 °C 29.9in /  1012.3hPa NE 5.4mph /  8.7km/h 9.2mph /  14.8km/h 82.1% 0in /  0.0mm
23:59 64.8 °F /  18.2 °C 59.2 °F /  15.1 °C 29.9in /  1012.3hPa NE 5.4mph /  8.7km/h 9mph /  14.5km/h 82.4% 0in /  0.0mm
Murcia-Puente Tocinos, España
Compliments of Weather Underground - 3 mb

La estación de MeteoMurcia.com, publica sus datos en los siguientes proyectos:

Weather Underground PWS IMURCIAP2 Meteoclimatic www.awekas.at

W3Counter
Web Analytics